createdAt,value
2019-03-04T00:00:07.563Z,95081.00
2019-03-04T00:02:34.191Z,95086.16
2019-03-04T00:05:00.869Z,95083.27
2019-03-04T00:07:27.508Z,95087.16
2019-03-04T00:09:54.161Z,95076.86
2019-03-04T00:12:20.813Z,95071.32
2019-03-04T00:14:47.458Z,95070.55
2019-03-04T00:17:14.158Z,95070.81
2019-03-04T00:19:40.794Z,95072.45
2019-03-04T00:22:07.423Z,95068.05
2019-03-04T00:24:34.118Z,95062.14
2019-03-04T00:27:00.798Z,95065.03
2019-03-04T00:29:27.480Z,95066.53
2019-03-04T00:31:54.162Z,95064.80
2019-03-04T00:34:20.827Z,95066.67
2019-03-04T00:36:47.500Z,95066.93
2019-03-04T00:39:14.140Z,95066.94
2019-03-04T00:41:40.804Z,95067.81
2019-03-04T00:44:07.451Z,95064.67
2019-03-04T00:46:34.104Z,95063.55
2019-03-04T00:49:00.783Z,95068.05
2019-03-04T00:51:27.424Z,95072.45
2019-03-04T00:53:54.106Z,95063.65
2019-03-04T00:56:20.744Z,95074.86
2019-03-04T00:58:47.393Z,95070.32
2019-03-04T01:01:14.075Z,95066.53
2019-03-04T01:03:40.713Z,95067.44
2019-03-04T01:06:07.357Z,95060.38
2019-03-04T01:08:34.014Z,95057.62
2019-03-04T01:11:01.886Z,95061.91
2019-03-04T01:13:27.340Z,95054.10
2019-03-04T01:15:54.008Z,95045.44
2019-03-04T01:18:20.644Z,95047.95
2019-03-04T01:20:47.285Z,95053.48
2019-03-04T01:23:13.960Z,95043.30
2019-03-04T01:25:40.642Z,95033.39
2019-03-04T01:28:07.291Z,95032.63
2019-03-04T01:30:33.929Z,95040.16
2019-03-04T01:33:00.760Z,95035.64
2019-03-04T01:35:27.428Z,95034.63
2019-03-04T01:37:54.046Z,95035.77
2019-03-04T01:40:20.751Z,95037.27
2019-03-04T01:42:47.409Z,95030.49
2019-03-04T01:45:14.089Z,95027.11
2019-03-04T01:47:40.849Z,95024.97
2019-03-04T01:50:07.435Z,95026.84
2019-03-04T01:52:34.083Z,95026.70
2019-03-04T01:55:00.732Z,95029.61
2019-03-04T01:57:27.377Z,95029.59
2019-03-04T01:59:54.079Z,95030.50
2019-03-04T02:02:20.838Z,95034.38
2019-03-04T02:04:47.543Z,95032.11
2019-03-04T02:07:14.181Z,95034.49
2019-03-04T02:09:40.873Z,95031.62
2019-03-04T02:12:07.523Z,95034.47
2019-03-04T02:14:34.168Z,95035.72
2019-03-04T02:17:00.813Z,95035.23
2019-03-04T02:19:27.538Z,95033.01
2019-03-04T02:21:54.178Z,95040.53
2019-03-04T02:24:20.876Z,95041.16
2019-03-04T02:26:47.568Z,95037.75
2019-03-04T02:29:14.210Z,95033.33
2019-03-04T02:31:40.849Z,95030.23
2019-03-04T02:34:07.511Z,95026.05
2019-03-04T02:36:34.154Z,95026.80
2019-03-04T02:39:00.806Z,95028.68
2019-03-04T02:41:27.449Z,95024.42
2019-03-04T02:43:54.103Z,95030.83
2019-03-04T02:46:20.755Z,95040.50
2019-03-04T02:48:47.409Z,95042.50
2019-03-04T02:51:14.049Z,95041.73
2019-03-04T02:53:40.697Z,95034.34
2019-03-04T02:56:07.379Z,95024.54
2019-03-04T02:58:34.025Z,95017.36
2019-03-04T03:01:00.673Z,95016.13
2019-03-04T03:03:27.318Z,95013.88
2019-03-04T03:05:54.008Z,95013.88
2019-03-04T03:08:20.645Z,95020.50
2019-03-04T03:10:47.280Z,95020.91
2019-03-04T03:13:13.932Z,95015.73
2019-03-04T03:15:40.575Z,95015.61
2019-03-04T03:18:07.225Z,95013.47
2019-03-04T03:20:33.883Z,95014.48
2019-03-04T03:23:00.551Z,95013.23
2019-03-04T03:25:27.168Z,95013.20
2019-03-04T03:27:53.821Z,95018.86
2019-03-04T03:30:20.531Z,95020.48
2019-03-04T03:32:47.175Z,95015.61
2019-03-04T03:35:13.813Z,95020.48
2019-03-04T03:37:40.463Z,95015.86
2019-03-04T03:40:07.109Z,95017.34
2019-03-04T03:42:33.749Z,95009.95
2019-03-04T03:45:00.432Z,95015.73
2019-03-04T03:47:27.068Z,95011.42
2019-03-04T03:49:53.709Z,95011.77
2019-03-04T03:52:20.438Z,95006.59
2019-03-04T03:54:47.112Z,94998.34
2019-03-04T03:57:13.799Z,94984.78
2019-03-04T03:59:40.440Z,94998.20
2019-03-04T04:02:07.087Z,94989.83
2019-03-04T04:04:33.816Z,94999.10
2019-03-04T04:07:00.450Z,94998.48
2019-03-04T04:09:27.121Z,95000.37
2019-03-04T04:11:53.746Z,94998.00
2019-03-04T04:14:20.386Z,94999.38
2019-03-04T04:16:47.072Z,94997.62
2019-03-04T04:19:13.710Z,94999.48
2019-03-04T04:21:40.354Z,94996.23
2019-03-04T04:24:06.993Z,94997.97
2019-03-04T04:26:33.675Z,94987.33
2019-03-04T04:29:00.325Z,94988.44
2019-03-04T04:31:26.967Z,94986.06
2019-03-04T04:33:53.616Z,94990.72
2019-03-04T04:36:20.263Z,94992.34
2019-03-04T04:38:46.942Z,94984.70
2019-03-04T04:41:13.581Z,94988.06
2019-03-04T04:43:40.261Z,94986.69
2019-03-04T04:46:06.909Z,94993.48
2019-03-04T04:48:33.562Z,94991.23
2019-03-04T04:51:00.200Z,94984.06
2019-03-04T04:53:26.835Z,94989.95
2019-03-04T04:55:53.485Z,94982.92
2019-03-04T04:58:20.171Z,94984.92
2019-03-04T05:00:46.810Z,94987.33
2019-03-04T05:03:13.483Z,94991.96
2019-03-04T05:05:40.095Z,94991.47
2019-03-04T05:08:06.737Z,94980.19
2019-03-04T05:10:33.379Z,94978.78
2019-03-04T05:13:00.023Z,94985.58
2019-03-04T05:15:26.707Z,94987.09
2019-03-04T05:17:53.399Z,94990.85
2019-03-04T05:20:20.343Z,94989.11
2019-03-04T05:22:46.984Z,94988.11
2019-03-04T05:25:13.666Z,94985.98
2019-03-04T05:27:40.302Z,94993.39
2019-03-04T05:30:06.996Z,94991.90
2019-03-04T05:32:33.633Z,94997.44
2019-03-04T05:35:00.308Z,94998.05
2019-03-04T05:37:26.923Z,94999.05
2019-03-04T05:39:53.612Z,95005.12
2019-03-04T05:42:20.293Z,95006.63
2019-03-04T05:44:46.927Z,95005.16
2019-03-04T05:47:13.590Z,95003.49
2019-03-04T05:49:40.248Z,95005.05
2019-03-04T05:52:06.924Z,95008.69
2019-03-04T05:54:33.590Z,95012.77
2019-03-04T05:57:00.223Z,95014.21
2019-03-04T05:59:27.001Z,95014.38
2019-03-04T06:01:53.653Z,95011.34
2019-03-04T06:04:20.350Z,95023.91
2019-03-04T06:06:46.988Z,95022.52
2019-03-04T06:09:16.239Z,95025.27
2019-03-04T06:11:42.896Z,95026.89
2019-03-04T06:14:09.541Z,95028.27
2019-03-04T06:16:36.226Z,95027.67
2019-03-04T06:19:02.876Z,95024.38
2019-03-04T06:21:29.526Z,95029.66
2019-03-04T06:23:56.208Z,95029.77
2019-03-04T06:26:22.846Z,95041.96
2019-03-04T06:28:49.485Z,95045.33
2019-03-04T06:31:16.130Z,95042.17
2019-03-04T06:33:42.767Z,95042.13
2019-03-04T06:36:09.449Z,95048.93
2019-03-04T06:38:36.142Z,95051.03
2019-03-04T06:41:02.788Z,95045.88
2019-03-04T06:43:29.428Z,95057.69
2019-03-04T06:45:56.103Z,95055.15
2019-03-04T06:48:22.787Z,95055.12
2019-03-04T06:50:49.431Z,95047.78
2019-03-04T06:53:16.066Z,95059.00
2019-03-04T06:55:42.760Z,95054.69
2019-03-04T06:58:09.474Z,95055.53
2019-03-04T07:00:36.121Z,95054.03
2019-03-04T07:03:02.772Z,95056.41
2019-03-04T07:05:29.403Z,95051.31
2019-03-04T07:07:56.116Z,95058.16
2019-03-04T07:10:22.742Z,95056.97
2019-03-04T07:12:49.426Z,95058.62
2019-03-04T07:15:16.070Z,95061.75
2019-03-04T07:17:42.717Z,95055.03
2019-03-04T07:20:09.381Z,95050.50
2019-03-04T07:22:36.069Z,95056.15
2019-03-04T07:25:02.756Z,95049.70
2019-03-04T07:27:29.430Z,95051.05
2019-03-04T07:29:56.112Z,95052.19
2019-03-04T07:32:22.783Z,95046.25
2019-03-04T07:34:49.465Z,95041.76
2019-03-04T07:37:16.124Z,95041.73
2019-03-04T07:39:42.765Z,95041.20
2019-03-04T07:42:09.415Z,95037.58
2019-03-04T07:44:36.105Z,95032.11
2019-03-04T07:47:02.787Z,95034.13
2019-03-04T07:49:29.474Z,95038.41
2019-03-04T07:51:56.117Z,95023.52
2019-03-04T07:54:22.766Z,95030.80
2019-03-04T07:56:49.423Z,95030.06
2019-03-04T07:59:16.061Z,95024.49
2019-03-04T08:01:42.704Z,95027.02
2019-03-04T08:04:09.380Z,95031.42
2019-03-04T08:06:36.045Z,95024.87
2019-03-04T08:09:02.693Z,95027.02
2019-03-04T08:11:29.329Z,95021.69
2019-03-04T08:13:55.982Z,95028.12
2019-03-04T08:16:22.671Z,95020.55
2019-03-04T08:18:49.338Z,95018.80
2019-03-04T08:21:15.990Z,95014.38
2019-03-04T08:23:42.648Z,95014.28
2019-03-04T08:26:09.335Z,95012.11
2019-03-04T08:28:35.981Z,95012.62
2019-03-04T08:31:02.615Z,95010.57
2019-03-04T08:33:29.257Z,95007.92
2019-03-04T08:35:55.894Z,95007.07
2019-03-04T08:38:22.552Z,95003.64
2019-03-04T08:40:49.187Z,94999.35
2019-03-04T08:43:15.875Z,95002.25
2019-03-04T08:45:42.483Z,94997.71
2019-03-04T08:48:09.120Z,94998.97
2019-03-04T08:50:35.821Z,94994.19
2019-03-04T08:53:02.503Z,94998.00
2019-03-04T08:55:30.210Z,94988.89
2019-03-04T08:57:55.784Z,94983.09
2019-03-04T09:00:22.442Z,94988.11
2019-03-04T09:02:49.176Z,94980.32
2019-03-04T09:05:15.819Z,94983.69
2019-03-04T09:07:42.462Z,94982.05
2019-03-04T09:10:09.126Z,94977.77
2019-03-04T09:12:36.053Z,94977.30
2019-03-04T09:15:02.440Z,94979.06
2019-03-04T09:17:29.081Z,94977.52
2019-03-04T09:19:55.730Z,94979.41
2019-03-04T09:22:22.395Z,94983.82
2019-03-04T09:24:49.081Z,94973.10
2019-03-04T09:27:15.717Z,94970.80
2019-03-04T09:29:42.378Z,94970.30
2019-03-04T09:32:09.040Z,94961.09
2019-03-04T09:34:35.684Z,94960.38
2019-03-04T09:37:02.343Z,94962.95
2019-03-04T09:39:29.025Z,94958.58
2019-03-04T09:41:55.719Z,94947.86
2019-03-04T09:44:22.359Z,94952.91
2019-03-04T09:46:49.004Z,94948.45
2019-03-04T09:49:15.653Z,94940.39
2019-03-04T09:51:42.369Z,94938.78
2019-03-04T09:54:09.018Z,94930.84
2019-03-04T09:56:36.963Z,94928.61
2019-03-04T09:59:02.318Z,94926.65
2019-03-04T10:01:28.999Z,94919.30
2019-03-04T10:03:55.695Z,94924.00
2019-03-04T10:06:22.386Z,94913.50
2019-03-04T10:08:49.035Z,94910.22
2019-03-04T10:11:15.684Z,94907.11
2019-03-04T10:13:42.328Z,94901.81
2019-03-04T10:16:18.305Z,94895.59
2019-03-04T10:18:35.622Z,94895.19
2019-03-04T10:21:02.281Z,94894.43
2019-03-04T10:23:28.925Z,94880.47
2019-03-04T10:25:55.612Z,94883.84
2019-03-04T10:28:22.257Z,94882.08
2019-03-04T10:30:48.900Z,94884.80
2019-03-04T10:33:15.556Z,94884.14
2019-03-04T10:35:42.239Z,94875.81
2019-03-04T10:38:08.976Z,94866.27
2019-03-04T10:40:35.637Z,94872.03
2019-03-04T10:43:02.290Z,94865.55
2019-03-04T10:45:28.941Z,94861.77
2019-03-04T10:47:55.638Z,94852.18
2019-03-04T10:50:22.286Z,94836.50
2019-03-04T10:52:48.924Z,94834.48
2019-03-04T10:55:15.579Z,94829.17
2019-03-04T10:57:43.570Z,94824.00
2019-03-04T11:00:08.913Z,94823.09
2019-03-04T11:02:35.551Z,94809.83
2019-03-04T11:05:02.246Z,94812.31
2019-03-04T11:07:28.900Z,94811.18
2019-03-04T11:09:55.611Z,94802.31
2019-03-04T11:12:22.323Z,94806.93
2019-03-04T11:14:48.969Z,94801.13
2019-03-04T11:17:15.623Z,94789.86
2019-03-04T11:19:42.350Z,94787.63
2019-03-04T11:22:09.001Z,94781.91
2019-03-04T11:24:35.640Z,94774.95
2019-03-04T11:27:02.289Z,94773.83
2019-03-04T11:29:28.966Z,94767.67
2019-03-04T11:31:55.575Z,94770.70
2019-03-04T11:34:22.253Z,94760.05
2019-03-04T11:36:48.909Z,94747.44
2019-03-04T11:39:15.554Z,94742.77
2019-03-04T11:41:42.199Z,94736.16
2019-03-04T11:44:08.840Z,94727.64
2019-03-04T11:46:35.517Z,94723.35
2019-03-04T11:49:02.162Z,94718.74
2019-03-04T11:51:28.804Z,94715.78
2019-03-04T11:53:55.473Z,94715.97
2019-03-04T11:56:22.116Z,94703.93
2019-03-04T11:58:48.857Z,94704.05
2019-03-04T12:01:15.504Z,94692.95
2019-03-04T12:03:42.141Z,94701.74
2019-03-04T12:06:08.792Z,94679.92
2019-03-04T12:08:35.491Z,94677.89
2019-03-04T12:11:02.137Z,94678.36
2019-03-04T12:13:28.824Z,94667.82
2019-03-04T12:15:55.519Z,94671.77
2019-03-04T12:18:22.165Z,94667.72
2019-03-04T12:20:48.806Z,94662.98
2019-03-04T12:23:15.493Z,94665.45
2019-03-04T12:25:42.138Z,94661.28
2019-03-04T12:28:08.792Z,94652.84
2019-03-04T12:30:35.445Z,94649.23
2019-03-04T12:33:02.085Z,94642.98
2019-03-04T12:35:28.730Z,94640.84
2019-03-04T12:37:55.412Z,94639.64
2019-03-04T12:40:22.067Z,94640.71
2019-03-04T12:42:48.731Z,94629.37
2019-03-04T12:45:15.386Z,94632.15
2019-03-04T12:47:42.112Z,94631.77
2019-03-04T12:50:08.760Z,94626.13
2019-03-04T12:52:35.403Z,94628.80
2019-03-04T12:55:02.133Z,94618.88
2019-03-04T12:57:28.768Z,94617.08
2019-03-04T12:59:55.413Z,94607.02
2019-03-04T13:02:22.259Z,94612.66
2019-03-04T13:04:48.910Z,94610.69
2019-03-04T13:07:15.641Z,94609.01
2019-03-04T13:09:42.333Z,94595.36
2019-03-04T13:12:08.977Z,94593.33
2019-03-04T13:14:35.624Z,94586.15
2019-03-04T13:17:02.308Z,94586.00
2019-03-04T13:19:28.947Z,94583.80
2019-03-04T13:21:55.633Z,94581.09
2019-03-04T13:24:22.278Z,94578.69
2019-03-04T13:26:48.915Z,94571.42
2019-03-04T13:29:15.614Z,94572.81
2019-03-04T13:31:42.272Z,94567.52
2019-03-04T13:34:08.926Z,94563.09
2019-03-04T13:36:35.564Z,94559.72
2019-03-04T13:39:02.209Z,94557.96
2019-03-04T13:41:28.857Z,94555.45
2019-03-04T13:43:55.540Z,94551.85
2019-03-04T13:46:22.138Z,94553.61
2019-03-04T13:48:48.825Z,94542.05
2019-03-04T13:51:15.462Z,94543.44
2019-03-04T13:53:42.106Z,94537.17
2019-03-04T13:56:08.761Z,94544.76
2019-03-04T13:58:35.485Z,94536.63
2019-03-04T14:01:02.103Z,94535.09
2019-03-04T14:03:28.796Z,94533.58
2019-03-04T14:05:55.493Z,94522.52
2019-03-04T14:08:22.129Z,94525.94
2019-03-04T14:10:48.820Z,94518.99
2019-03-04T14:13:15.462Z,94517.71
2019-03-04T14:15:42.146Z,94508.14
2019-03-04T14:18:08.800Z,94508.14
2019-03-04T14:20:35.441Z,94499.79
2019-03-04T14:23:02.093Z,94494.30
2019-03-04T14:25:28.739Z,94495.75
2019-03-04T14:27:55.433Z,94489.30
2019-03-04T14:30:22.123Z,94488.30
2019-03-04T14:32:48.762Z,94488.59
2019-03-04T14:35:15.411Z,94484.20
2019-03-04T14:37:42.107Z,94482.72
2019-03-04T14:40:08.746Z,94479.12
2019-03-04T14:42:35.384Z,94478.82
2019-03-04T14:45:02.042Z,94479.50
2019-03-04T14:47:28.701Z,94478.86
2019-03-04T14:49:55.338Z,94478.00
2019-03-04T14:52:22.017Z,94481.47
2019-03-04T14:54:48.664Z,94481.42
2019-03-04T14:57:15.313Z,94473.20
2019-03-04T14:59:41.961Z,94480.66
2019-03-04T15:02:08.608Z,94482.98
2019-03-04T15:04:35.271Z,94484.11
2019-03-04T15:07:01.974Z,94476.11
2019-03-04T15:09:28.735Z,94478.51
2019-03-04T15:11:55.374Z,94479.34
2019-03-04T15:14:22.058Z,94482.39
2019-03-04T15:16:48.695Z,94477.20
2019-03-04T15:19:15.376Z,94465.26
2019-03-04T15:21:42.015Z,94469.20
2019-03-04T15:24:08.687Z,94468.56
2019-03-04T15:26:41.962Z,94465.67
2019-03-04T15:29:01.992Z,94460.93
2019-03-04T15:31:28.685Z,94458.73
2019-03-04T15:33:55.322Z,94455.60
2019-03-04T15:36:21.969Z,94454.36
2019-03-04T15:38:48.652Z,94458.38
2019-03-04T15:41:15.301Z,94454.50
2019-03-04T15:43:41.940Z,94451.80
2019-03-04T15:46:08.617Z,94446.54
2019-03-04T15:48:35.269Z,94451.19
2019-03-04T15:51:01.944Z,94448.59
2019-03-04T15:53:28.663Z,94448.94
2019-03-04T15:55:55.313Z,94446.48
2019-03-04T15:58:21.956Z,94438.53
2019-03-04T16:00:48.597Z,94438.59
2019-03-04T16:03:15.232Z,94442.98
2019-03-04T16:05:41.886Z,94440.77
2019-03-04T16:08:08.533Z,94440.45
2019-03-04T16:10:35.189Z,94446.21
2019-03-04T16:13:01.838Z,94452.52
2019-03-04T16:15:28.483Z,94449.87
2019-03-04T16:17:55.117Z,94451.98
2019-03-04T16:20:21.784Z,94452.79
2019-03-04T16:22:48.433Z,94451.20
2019-03-04T16:25:15.082Z,94450.34
2019-03-04T16:27:41.731Z,94456.59
2019-03-04T16:30:08.386Z,94459.17
2019-03-04T16:32:35.026Z,94457.03
2019-03-04T16:35:01.675Z,94455.80
2019-03-04T16:37:28.383Z,94460.59
2019-03-04T16:39:54.975Z,94456.23
2019-03-04T16:42:21.623Z,94455.91
2019-03-04T16:44:48.260Z,94451.81
2019-03-04T16:47:14.912Z,94453.66
2019-03-04T16:49:41.561Z,94452.02
2019-03-04T16:52:08.196Z,94450.84
2019-03-04T16:54:34.881Z,94447.42
2019-03-04T16:57:03.434Z,94447.31
2019-03-04T16:59:28.205Z,94442.14
2019-03-04T17:01:54.840Z,94442.20
2019-03-04T17:04:21.480Z,94448.01
2019-03-04T17:06:48.122Z,94443.58
2019-03-04T17:09:14.781Z,94442.08
2019-03-04T17:11:44.754Z,94442.08
2019-03-04T17:14:11.397Z,94443.07
2019-03-04T17:16:38.042Z,94445.09
2019-03-04T17:19:04.689Z,94451.59
2019-03-04T17:21:31.325Z,94444.80
2019-03-04T17:23:57.990Z,94442.47
2019-03-04T17:26:24.636Z,94445.45
2019-03-04T17:28:51.272Z,94453.77
2019-03-04T17:31:17.926Z,94453.52
2019-03-04T17:33:45.655Z,94451.87
2019-03-04T17:36:11.219Z,94460.71
2019-03-04T17:38:37.918Z,94457.73
2019-03-04T17:41:04.588Z,94456.55
2019-03-04T17:43:31.239Z,94455.80
2019-03-04T17:45:57.883Z,94446.00
2019-03-04T17:48:25.210Z,94451.23
2019-03-04T17:50:51.868Z,94452.13
2019-03-04T17:53:18.670Z,94448.48
2019-03-04T17:55:45.323Z,94448.72
2019-03-04T17:58:11.965Z,94446.16
2019-03-04T18:00:38.619Z,94449.42
2019-03-04T18:03:05.284Z,94449.47
2019-03-04T18:05:32.058Z,94452.39
2019-03-04T18:07:58.738Z,94454.09
2019-03-04T18:10:25.354Z,94450.37
2019-03-04T18:12:53.212Z,94451.18
2019-03-04T18:15:18.632Z,94456.50
2019-03-04T18:17:45.281Z,94464.50
2019-03-04T18:20:11.934Z,94480.30
2019-03-04T18:22:38.572Z,94475.39
2019-03-04T18:25:05.227Z,94476.23
2019-03-04T18:27:31.871Z,94474.58
2019-03-04T18:29:58.545Z,94475.22
2019-03-04T18:32:25.194Z,94477.13
2019-03-04T18:34:51.840Z,94478.20
2019-03-04T18:37:18.484Z,94481.52
2019-03-04T18:39:45.121Z,94492.29
2019-03-04T18:42:11.890Z,94493.35
2019-03-04T18:44:38.537Z,94498.91
2019-03-04T18:47:05.179Z,94500.61
2019-03-04T18:49:31.848Z,94500.03
2019-03-04T18:51:58.499Z,94502.00
2019-03-04T18:54:25.149Z,94505.08
2019-03-04T18:56:51.790Z,94501.77
2019-03-04T18:59:18.443Z,94499.01
2019-03-04T19:01:45.082Z,94487.91
2019-03-04T19:04:11.764Z,94496.63
2019-03-04T19:06:38.415Z,94503.16
2019-03-04T19:09:05.057Z,94488.98
2019-03-04T19:11:31.704Z,94484.21
2019-03-04T19:13:58.345Z,94484.52
2019-03-04T19:16:24.995Z,94494.40
2019-03-04T19:18:51.645Z,94501.22
2019-03-04T19:21:18.330Z,94496.00
2019-03-04T19:23:45.080Z,94489.73
2019-03-04T19:26:11.713Z,94485.20
2019-03-04T19:28:38.369Z,94488.92
2019-03-04T19:31:05.051Z,94486.78
2019-03-04T19:33:31.702Z,94483.31
2019-03-04T19:35:58.363Z,94480.34
2019-03-04T19:38:25.010Z,94479.04
2019-03-04T19:40:51.662Z,94484.13
2019-03-04T19:43:18.313Z,94485.77
2019-03-04T19:45:45.079Z,94481.97
2019-03-04T19:48:11.718Z,94483.00
2019-03-04T19:50:38.364Z,94477.88
2019-03-04T19:53:05.026Z,94483.61
2019-03-04T19:55:31.680Z,94474.75
2019-03-04T19:57:58.316Z,94469.63
2019-03-04T20:00:25.180Z,94471.04
2019-03-04T20:02:51.600Z,94475.87
2019-03-04T20:05:18.246Z,94471.34
2019-03-04T20:07:44.888Z,94476.84
2019-03-04T20:10:11.545Z,94472.88
2019-03-04T20:12:38.193Z,94475.20
2019-03-04T20:15:04.846Z,94480.03
2019-03-04T20:17:31.525Z,94476.51
2019-03-04T20:19:58.165Z,94469.09
2019-03-04T20:22:24.813Z,94475.44
2019-03-04T20:24:51.450Z,94470.57
2019-03-04T20:27:18.094Z,94473.38
2019-03-04T20:29:44.727Z,94471.17
2019-03-04T20:32:11.382Z,94473.55
2019-03-04T20:34:38.026Z,94471.28
2019-03-04T20:37:04.679Z,94474.44
2019-03-04T20:39:31.321Z,94479.21
2019-03-04T20:41:57.963Z,94476.94
2019-03-04T20:44:24.626Z,94474.92
2019-03-04T20:46:51.263Z,94491.89
2019-03-04T20:49:17.919Z,94495.34
2019-03-04T20:51:44.557Z,94491.30
2019-03-04T20:54:11.197Z,94481.21
2019-03-04T20:56:37.844Z,94482.15
2019-03-04T20:59:04.484Z,94484.36
2019-03-04T21:01:31.133Z,94490.30
2019-03-04T21:03:57.789Z,94482.62
2019-03-04T21:06:24.423Z,94483.04
2019-03-04T21:08:51.064Z,94476.96
2019-03-04T21:11:17.741Z,94480.59
2019-03-04T21:13:44.372Z,94488.93
2019-03-04T21:16:11.023Z,94483.79
2019-03-04T21:18:37.659Z,94475.53
2019-03-04T21:21:04.309Z,94477.80
2019-03-04T21:23:30.947Z,94480.99
2019-03-04T21:25:57.597Z,94467.94
2019-03-04T21:28:24.280Z,94466.28
2019-03-04T21:30:50.931Z,94469.16
2019-03-04T21:33:17.590Z,94467.28
2019-03-04T21:35:45.042Z,94462.97
2019-03-04T21:38:10.893Z,94462.52
2019-03-04T21:40:37.606Z,94460.27
2019-03-04T21:43:04.245Z,94460.56
2019-03-04T21:45:30.883Z,94479.53
2019-03-04T21:47:57.527Z,94481.64
2019-03-04T21:50:24.185Z,94475.77
2019-03-04T21:52:50.849Z,94479.95
2019-03-04T21:55:17.509Z,94486.85
2019-03-04T21:57:44.243Z,94493.89
2019-03-04T22:00:10.884Z,94490.13
2019-03-04T22:02:37.566Z,94489.61
2019-03-04T22:05:04.239Z,94492.00
2019-03-04T22:07:30.953Z,94481.88
2019-03-04T22:09:57.633Z,94490.14
2019-03-04T22:12:24.522Z,94489.97
2019-03-04T22:14:51.173Z,94497.48
2019-03-04T22:17:18.592Z,94494.96
2019-03-04T22:19:45.261Z,94487.54
2019-03-04T22:22:11.932Z,94494.54
2019-03-04T22:24:38.625Z,94482.06
2019-03-04T22:27:05.297Z,94479.75
2019-03-04T22:29:32.035Z,94486.83
2019-03-04T22:31:58.733Z,94489.44
2019-03-04T22:34:25.420Z,94484.09
2019-03-04T22:36:52.101Z,94484.73
2019-03-04T22:39:18.787Z,94479.20
2019-03-04T22:41:45.474Z,94489.33
2019-03-04T22:44:12.144Z,94491.80
2019-03-04T22:46:38.840Z,94499.34
2019-03-04T22:49:05.557Z,94495.73
2019-03-04T22:51:32.215Z,94496.48
2019-03-04T22:53:58.889Z,94502.95
2019-03-04T22:56:25.638Z,94500.32
2019-03-04T22:58:52.301Z,94507.23
2019-03-04T23:01:18.981Z,94504.00
2019-03-04T23:03:45.659Z,94504.59
2019-03-04T23:06:12.478Z,94499.22
2019-03-04T23:08:39.146Z,94500.66
2019-03-04T23:11:05.864Z,94493.81
2019-03-04T23:13:32.550Z,94500.94
2019-03-04T23:15:59.230Z,94506.78
2019-03-04T23:18:25.998Z,94504.30
2019-03-04T23:20:52.670Z,94513.75
2019-03-04T23:23:19.353Z,94508.84
2019-03-04T23:25:46.043Z,94500.08
2019-03-04T23:28:12.721Z,94498.60
2019-03-04T23:30:39.440Z,94499.44
2019-03-04T23:33:06.108Z,94505.32
2019-03-04T23:35:32.778Z,94506.70
2019-03-04T23:37:59.472Z,94514.05
2019-03-04T23:40:26.145Z,94509.00
2019-03-04T23:42:52.826Z,94503.43
2019-03-04T23:45:19.505Z,94496.80
2019-03-04T23:47:46.190Z,94503.94
2019-03-04T23:50:12.849Z,94502.22
2019-03-04T23:52:39.513Z,94511.69
2019-03-04T23:55:06.184Z,94521.71
2019-03-04T23:57:33.027Z,94522.38
2019-03-04T23:59:59.664Z,94534.16
